createdAt,value
2022-07-27T03:29:10.440Z,1011.35
2022-07-27T03:30:10.205Z,1011.37
2022-07-27T03:31:10.311Z,1011.38
2022-07-27T03:32:10.213Z,1011.38
2022-07-27T03:33:10.220Z,1011.40
2022-07-27T03:34:10.229Z,1011.37
2022-07-27T03:35:10.241Z,1011.37
2022-07-27T03:36:10.248Z,1011.40
2022-07-27T03:37:10.257Z,1011.39
2022-07-27T03:38:11.483Z,1011.37
2022-07-27T03:39:10.596Z,1011.35
2022-07-27T03:40:10.282Z,1011.38
2022-07-27T03:41:10.295Z,1011.39
2022-07-27T03:42:10.292Z,1011.38
2022-07-27T03:43:10.308Z,1011.38
2022-07-27T03:44:10.310Z,1011.39
2022-07-27T03:45:10.319Z,1011.40
2022-07-27T03:46:10.370Z,1011.42
2022-07-27T03:47:10.342Z,1011.40
2022-07-27T03:48:10.349Z,1011.44
2022-07-27T03:49:14.856Z,1011.44
2022-07-27T03:50:10.369Z,1011.43
2022-07-27T03:51:10.369Z,1011.46
2022-07-27T03:52:15.709Z,1011.47
2022-07-27T03:53:10.387Z,1011.45
2022-07-27T03:54:10.392Z,1011.44
2022-07-27T03:55:10.402Z,1011.47
2022-07-27T03:56:10.417Z,1011.49
2022-07-27T03:57:10.418Z,1011.48
2022-07-27T03:58:10.434Z,1011.47
2022-07-27T03:59:10.787Z,1011.47
2022-07-27T04:00:10.450Z,1011.48
2022-07-27T04:01:10.530Z,1011.48
2022-07-27T04:02:10.517Z,1011.50
2022-07-27T04:03:10.468Z,1011.49
2022-07-27T04:04:10.480Z,1011.50
2022-07-27T04:05:10.485Z,1011.50
2022-07-27T04:06:10.502Z,1011.54
2022-07-27T04:07:10.511Z,1011.54
2022-07-27T04:08:10.519Z,1011.55
2022-07-27T04:09:10.525Z,1011.51
2022-07-27T04:10:10.529Z,1011.54
2022-07-27T04:11:10.542Z,1011.52
2022-07-27T04:12:10.577Z,1011.51
2022-07-27T04:13:10.560Z,1011.49
2022-07-27T04:14:10.566Z,1011.44
2022-07-27T04:15:10.580Z,1011.47
2022-07-27T04:16:10.727Z,1011.46
2022-07-27T04:17:10.644Z,1011.43
2022-07-27T04:18:10.604Z,1011.42
2022-07-27T04:19:10.989Z,1011.43
2022-07-27T04:20:10.613Z,1011.45
2022-07-27T04:21:10.624Z,1011.43
2022-07-27T04:22:10.637Z,1011.45
2022-07-27T04:23:10.640Z,1011.44
2022-07-27T04:24:10.656Z,1011.45
2022-07-27T04:25:10.668Z,1011.39
2022-07-27T04:26:10.674Z,1011.43
2022-07-27T04:27:10.681Z,1011.43
2022-07-27T04:28:10.690Z,1011.42
2022-07-27T04:29:10.915Z,1011.38
2022-07-27T04:30:10.710Z,1011.37
2022-07-27T04:31:10.914Z,1011.43
2022-07-27T04:32:10.716Z,1011.46
2022-07-27T04:33:10.733Z,1011.47
2022-07-27T04:34:10.742Z,1011.46
2022-07-27T04:35:10.745Z,1011.49
2022-07-27T04:36:10.758Z,1011.48
2022-07-27T04:37:10.768Z,1011.47
2022-07-27T04:38:10.776Z,1011.45
2022-07-27T04:39:11.022Z,1011.52
2022-07-27T04:40:10.793Z,1011.54
2022-07-27T04:41:10.796Z,1011.54
2022-07-27T04:42:10.817Z,1011.56
2022-07-27T04:43:10.821Z,1011.54
2022-07-27T04:44:10.829Z,1011.54
2022-07-27T04:45:10.839Z,1011.53
2022-07-27T04:46:15.142Z,1011.50
2022-07-27T04:47:10.855Z,1011.52
2022-07-27T04:48:10.856Z,1011.52
2022-07-27T04:49:11.223Z,1011.54
2022-07-27T04:50:10.876Z,1011.55
2022-07-27T04:51:10.891Z,1011.58
2022-07-27T04:52:10.892Z,1011.57
2022-07-27T04:53:10.900Z,1011.61
2022-07-27T04:54:10.920Z,1011.62
2022-07-27T04:55:10.918Z,1011.65
2022-07-27T04:56:10.934Z,1011.66
2022-07-27T04:57:10.937Z,1011.64
2022-07-27T04:58:10.946Z,1011.62
2022-07-27T04:59:11.287Z,1011.64
2022-07-27T05:00:10.963Z,1011.67
2022-07-27T05:01:10.989Z,1011.66
2022-07-27T05:02:10.982Z,1011.66
2022-07-27T05:03:10.993Z,1011.68
2022-07-27T05:04:11.026Z,1011.67
2022-07-27T05:05:11.013Z,1011.67
2022-07-27T05:06:11.016Z,1011.63
2022-07-27T05:07:11.025Z,1011.64
2022-07-27T05:08:11.038Z,1011.67
2022-07-27T05:09:11.339Z,1011.68
2022-07-27T05:10:11.051Z,1011.69
2022-07-27T05:11:11.078Z,1011.67
2022-07-27T05:12:11.070Z,1011.70
2022-07-27T05:13:11.084Z,1011.68
2022-07-27T05:14:11.086Z,1011.67
2022-07-27T05:15:11.102Z,1011.66
2022-07-27T05:16:11.236Z,1011.67
2022-07-27T05:17:11.119Z,1011.64
2022-07-27T05:18:11.123Z,1011.68
2022-07-27T05:19:11.494Z,1011.68
2022-07-27T05:20:11.146Z,1011.68
2022-07-27T05:21:13.781Z,1011.69
2022-07-27T05:22:11.168Z,1011.74
2022-07-27T05:23:11.176Z,1011.80
2022-07-27T05:24:11.187Z,1011.81
2022-07-27T05:25:11.184Z,1011.82
2022-07-27T05:26:11.203Z,1011.84
2022-07-27T05:27:11.204Z,1011.84
2022-07-27T05:28:11.221Z,1011.88
2022-07-27T05:29:11.535Z,1011.88
2022-07-27T05:30:11.240Z,1011.87
2022-07-27T05:31:11.248Z,1011.88
2022-07-27T05:32:11.382Z,1011.91
2022-07-27T05:33:11.258Z,1011.87
2022-07-27T05:34:11.277Z,1011.92
2022-07-27T05:35:11.278Z,1011.93
2022-07-27T05:36:11.287Z,1011.95
2022-07-27T05:37:11.296Z,1011.98
2022-07-27T05:38:11.306Z,1011.97
2022-07-27T05:39:13.770Z,1011.94
2022-07-27T05:40:11.333Z,1011.97
2022-07-27T05:41:11.340Z,1011.96
2022-07-27T05:42:11.355Z,1011.95
2022-07-27T05:43:11.361Z,1011.99
2022-07-27T05:44:11.362Z,1011.96
2022-07-27T05:45:11.383Z,1011.97
2022-07-27T05:46:11.492Z,1011.97
2022-07-27T05:47:11.667Z,1012.02
2022-07-27T05:48:11.409Z,1011.99
2022-07-27T05:49:11.707Z,1011.99
2022-07-27T05:50:11.420Z,1011.97
2022-07-27T05:51:11.436Z,1012.03
2022-07-27T05:52:11.447Z,1011.95
2022-07-27T05:53:11.488Z,1011.99
2022-07-27T05:54:11.479Z,1012.02
2022-07-27T05:55:11.490Z,1012.04
2022-07-27T05:56:11.493Z,1011.98
2022-07-27T05:57:11.495Z,1011.98
2022-07-27T05:58:11.499Z,1012.03
2022-07-27T05:59:11.852Z,1012.01
2022-07-27T06:00:11.522Z,1012.00
2022-07-27T06:01:11.604Z,1012.02
2022-07-27T06:02:11.535Z,1012.01
2022-07-27T06:03:11.584Z,1012.02
2022-07-27T06:04:14.481Z,1012.01
2022-07-27T06:05:15.627Z,1012.04
2022-07-27T06:06:11.581Z,1012.04
2022-07-27T06:07:11.586Z,1012.04
2022-07-27T06:08:11.593Z,1012.02
2022-07-27T06:09:12.118Z,1012.04
2022-07-27T06:10:11.615Z,1012.02
2022-07-27T06:11:11.634Z,1012.03
2022-07-27T06:12:11.631Z,1012.07
2022-07-27T06:13:11.643Z,1012.04
2022-07-27T06:14:11.652Z,1012.07
2022-07-27T06:15:11.662Z,1012.10
2022-07-27T06:16:11.757Z,1012.07
2022-07-27T06:17:11.681Z,1012.08
2022-07-27T06:18:11.698Z,1012.11
2022-07-27T06:19:12.079Z,1012.11
2022-07-27T06:20:11.723Z,1012.10
2022-07-27T06:21:11.727Z,1012.08
2022-07-27T06:22:11.733Z,1012.14
2022-07-27T06:23:11.746Z,1012.10
2022-07-27T06:24:11.757Z,1012.10
2022-07-27T06:25:11.759Z,1012.09
2022-07-27T06:26:11.777Z,1012.09
2022-07-27T06:27:11.780Z,1012.10
2022-07-27T06:28:11.812Z,1012.07
2022-07-27T06:29:12.147Z,1012.08
2022-07-27T06:30:11.817Z,1012.04
2022-07-27T06:31:11.939Z,1012.06
2022-07-27T06:32:11.875Z,1012.05
2022-07-27T06:33:11.839Z,1012.05
2022-07-27T06:34:12.111Z,1012.04
2022-07-27T06:35:12.644Z,1012.02
2022-07-27T06:36:11.875Z,1012.07
2022-07-27T06:37:11.879Z,1012.06
2022-07-27T06:38:11.895Z,1012.07
2022-07-27T06:39:12.212Z,1012.05
2022-07-27T06:40:11.915Z,1012.06
2022-07-27T06:41:11.927Z,1012.11
2022-07-27T06:42:11.928Z,1012.12
2022-07-27T06:43:11.941Z,1012.11
2022-07-27T06:44:11.957Z,1012.14
2022-07-27T06:45:11.960Z,1012.10
2022-07-27T06:46:11.969Z,1012.12
2022-07-27T06:47:12.066Z,1012.13
2022-07-27T06:48:11.989Z,1012.11
2022-07-27T06:49:12.448Z,1012.10
2022-07-27T06:50:12.017Z,1012.10
2022-07-27T06:51:12.021Z,1012.11
2022-07-27T06:52:12.039Z,1012.11
2022-07-27T06:53:12.046Z,1012.10
2022-07-27T06:54:12.050Z,1012.09
2022-07-27T06:55:12.066Z,1012.10
2022-07-27T06:56:12.083Z,1012.12
2022-07-27T06:57:12.086Z,1012.07
2022-07-27T06:58:12.098Z,1012.09
2022-07-27T06:59:12.462Z,1012.04
2022-07-27T07:00:12.118Z,1012.08
2022-07-27T07:01:12.251Z,1012.08
2022-07-27T07:02:12.135Z,1012.10
2022-07-27T07:03:12.142Z,1012.09
2022-07-27T07:04:12.260Z,1012.12
2022-07-27T07:05:12.175Z,1012.09
2022-07-27T07:06:12.170Z,1012.09
2022-07-27T07:07:12.184Z,1012.11
2022-07-27T07:08:12.211Z,1012.07
2022-07-27T07:09:12.645Z,1012.08
2022-07-27T07:10:12.211Z,1012.08
2022-07-27T07:11:12.226Z,1012.09
2022-07-27T07:12:12.239Z,1012.08
2022-07-27T07:13:12.246Z,1012.12
2022-07-27T07:14:12.255Z,1012.12
2022-07-27T07:15:12.273Z,1012.13
2022-07-27T07:16:12.391Z,1012.14
2022-07-27T07:17:12.294Z,1012.12
2022-07-27T07:18:12.301Z,1012.15
2022-07-27T07:19:12.749Z,1012.13
2022-07-27T07:20:12.320Z,1012.08
2022-07-27T07:21:12.328Z,1012.08
2022-07-27T07:22:12.340Z,1012.10
2022-07-27T07:23:12.363Z,1012.11
2022-07-27T07:24:12.375Z,1012.09
2022-07-27T07:25:12.381Z,1012.09
2022-07-27T07:26:12.391Z,1012.07
2022-07-27T07:27:12.404Z,1012.07
2022-07-27T07:28:12.409Z,1012.07
2022-07-27T07:29:12.714Z,1012.05
2022-07-27T07:30:12.428Z,1012.06
2022-07-27T07:31:12.504Z,1012.07
2022-07-27T07:32:12.445Z,1012.07
2022-07-27T07:33:12.464Z,1012.04
2022-07-27T07:34:13.275Z,1012.08
2022-07-27T07:35:12.486Z,1012.05
2022-07-27T07:36:14.948Z,1012.04
2022-07-27T07:37:12.507Z,1012.06
2022-07-27T07:38:12.518Z,1012.03
2022-07-27T07:39:12.897Z,1012.03
2022-07-27T07:40:41.598Z,1012.04
2022-07-27T07:41:55.095Z,1012.08
2022-07-27T07:42:55.106Z,1012.07
2022-07-27T07:43:55.110Z,1012.02
2022-07-27T07:44:55.122Z,1012.05
2022-07-27T07:45:55.131Z,1012.08
2022-07-27T07:46:55.269Z,1012.07
2022-07-27T08:40:38.387Z,1012.20
2022-07-27T08:40:47.166Z,1012.20
2022-07-27T08:41:46.453Z,1012.20
2022-07-27T08:42:46.460Z,1012.19
2022-07-27T08:43:46.474Z,1012.16
2022-07-27T08:44:46.485Z,1012.17
2022-07-27T08:45:46.498Z,1012.19
2022-07-27T08:46:46.618Z,1012.16
2022-07-27T08:47:46.518Z,1012.16
2022-07-27T08:48:46.598Z,1012.29
2022-07-27T08:54:05.746Z,1012.20
2022-07-27T08:55:05.757Z,1012.18
2022-07-27T08:56:05.772Z,1012.09
2022-07-27T08:57:05.788Z,1012.12
2022-07-27T08:58:05.814Z,1012.32
2022-07-27T08:59:05.818Z,1012.33
2022-07-27T09:00:08.459Z,1012.33
2022-07-27T09:01:05.841Z,1012.35
2022-07-27T09:02:05.912Z,1012.31
2022-07-27T09:03:05.959Z,1012.32
2022-07-27T09:04:05.882Z,1012.21
2022-07-27T09:05:05.897Z,1012.18
2022-07-27T09:06:05.915Z,1012.24
2022-07-27T09:07:08.561Z,1012.28
2022-07-27T09:08:08.576Z,1012.33
2022-07-27T09:24:44.516Z,1012.31
2022-07-27T10:02:25.297Z,1012.01
2022-07-27T10:04:28.001Z,1012.06
2022-07-27T10:05:27.797Z,1012.08
2022-07-27T10:06:27.819Z,1012.10
2022-07-27T10:07:27.843Z,1012.11
2022-07-27T10:08:27.863Z,1012.12
2022-07-27T10:10:20.445Z,1012.07
2022-07-27T10:11:20.465Z,1012.04
2022-07-27T10:12:20.481Z,1012.11
2022-07-27T10:13:20.500Z,1012.06
2022-07-27T10:14:20.516Z,1012.09
2022-07-27T10:15:20.545Z,1012.07
2022-07-27T10:16:20.658Z,1012.05
2022-07-27T10:17:20.572Z,1012.06
2022-07-27T10:18:20.588Z,1012.05
2022-07-27T10:19:20.604Z,1012.00
2022-07-27T10:20:20.628Z,1011.99
2022-07-27T10:21:20.649Z,1011.97
2022-07-27T10:22:20.663Z,1011.97
2022-07-27T10:23:20.682Z,1011.96
2022-07-27T10:24:20.697Z,1012.03
2022-07-27T10:25:20.715Z,1012.07
2022-07-27T10:26:20.725Z,1012.05
2022-07-27T10:27:20.762Z,1012.02
2022-07-27T10:28:20.764Z,1011.93
2022-07-27T10:29:23.400Z,1011.91
2022-07-27T10:30:27.702Z,1011.98
2022-07-27T10:31:21.046Z,1011.94
2022-07-27T10:32:20.835Z,1011.96
2022-07-27T10:33:20.853Z,1012.02
2022-07-27T10:34:20.880Z,1011.94
2022-07-27T10:35:20.892Z,1011.99
2022-07-27T10:36:20.916Z,1012.02
2022-07-27T10:37:20.935Z,1011.99
2022-07-27T10:38:20.953Z,1012.01
2022-07-27T10:39:20.965Z,1011.99
2022-07-27T10:40:20.988Z,1012.00
2022-07-27T10:41:21.008Z,1012.07
2022-07-27T10:42:21.023Z,1012.06
2022-07-27T10:43:21.042Z,1012.04
2022-07-27T10:44:21.058Z,1012.04
2022-07-27T10:45:21.076Z,1012.04
2022-07-27T10:46:21.102Z,1012.05
2022-07-27T10:47:21.112Z,1012.00
2022-07-27T10:48:21.126Z,1012.02
2022-07-27T10:49:21.166Z,1012.00
2022-07-27T10:50:21.152Z,1011.96
2022-07-27T10:51:21.169Z,1011.96
2022-07-27T10:52:21.192Z,1011.97
2022-07-27T10:53:21.200Z,1011.98
2022-07-27T10:54:21.225Z,1011.99
2022-07-27T10:55:21.233Z,1011.98
2022-07-27T10:56:21.259Z,1012.01
2022-07-27T10:57:21.273Z,1012.00
2022-07-27T10:58:21.284Z,1012.03
2022-07-27T10:59:21.306Z,1012.02
2022-07-27T11:00:21.385Z,1012.02
2022-07-27T11:01:21.426Z,1012.00
2022-07-27T11:02:21.355Z,1012.03
2022-07-27T11:03:21.363Z,1012.14
2022-07-27T11:04:21.416Z,1012.10
2022-07-27T11:06:55.726Z,1012.09
2022-07-27T11:07:24.341Z,1012.09
2022-07-27T11:08:36.477Z,1012.09
2022-07-27T11:10:02.512Z,1012.12
2022-07-27T11:10:21.480Z,1012.07
2022-07-27T11:11:21.499Z,1011.99
2022-07-27T11:12:21.515Z,1011.97
2022-07-27T11:13:21.545Z,1011.96
2022-07-27T11:14:30.359Z,1011.95
2022-07-27T11:15:21.560Z,1011.92
2022-07-27T11:16:24.408Z,1011.94
2022-07-27T11:20:47.493Z,1011.95
2022-07-27T11:21:47.519Z,1012.00
2022-07-27T11:24:45.130Z,1011.97
2022-07-27T11:25:45.155Z,1012.01
2022-07-27T11:26:45.176Z,1011.96
2022-07-27T11:27:45.184Z,1011.95
2022-07-27T11:28:45.202Z,1011.91
2022-07-27T11:29:45.221Z,1011.92
2022-07-27T11:30:45.294Z,1011.92
2022-07-27T11:31:55.510Z,1011.86
2022-07-27T11:32:45.276Z,1011.87
2022-07-27T11:33:45.296Z,1011.87
2022-07-27T11:34:45.311Z,1011.92
2022-07-27T11:35:45.323Z,1011.97
2022-07-27T11:36:45.338Z,1011.95
2022-07-27T11:37:45.364Z,1011.91
2022-07-27T12:00:52.997Z,1011.78
2022-07-27T12:01:53.053Z,1011.76
2022-07-27T12:02:53.128Z,1011.73
2022-07-27T12:03:53.089Z,1011.76
2022-07-27T12:04:53.227Z,1011.79
2022-07-27T12:05:53.092Z,1011.77
2022-07-27T12:06:53.115Z,1011.80
2022-07-27T12:07:53.130Z,1011.81
2022-07-27T12:08:53.150Z,1011.77
2022-07-27T12:09:53.172Z,1011.79
2022-07-27T12:10:53.180Z,1011.76
2022-07-27T12:11:53.200Z,1011.79
2022-07-27T12:12:53.224Z,1011.82
2022-07-27T12:13:53.245Z,1011.79
2022-07-27T12:14:53.255Z,1011.77
2022-07-27T12:15:53.277Z,1011.74
2022-07-27T12:16:53.355Z,1011.72
2022-07-27T12:17:53.306Z,1011.75
2022-07-27T12:18:53.326Z,1011.73
2022-07-27T12:19:53.349Z,1011.73
2022-07-27T12:20:53.368Z,1011.70
2022-07-27T12:21:53.382Z,1011.67
2022-07-27T12:22:53.401Z,1011.78
2022-07-27T12:23:53.420Z,1011.69
2022-07-27T12:24:53.452Z,1011.63
2022-07-27T12:25:53.444Z,1011.69
2022-07-27T12:26:53.460Z,1011.69
2022-07-27T12:27:53.486Z,1011.65
2022-07-27T12:28:53.501Z,1011.62
2022-07-27T12:29:53.519Z,1011.59
2022-07-27T12:30:53.584Z,1011.61
2022-07-27T12:31:53.553Z,1011.60
2022-07-27T12:32:55.631Z,1011.67
2022-07-27T12:34:02.894Z,1011.64
2022-07-27T12:34:53.606Z,1011.62
2022-07-27T12:35:53.625Z,1011.63
2022-07-27T12:43:16.242Z,1011.63
2022-07-27T12:44:16.265Z,1011.61
2022-07-27T12:45:16.285Z,1011.58
2022-07-27T12:46:16.470Z,1011.61
2022-07-27T12:47:16.321Z,1011.61
2022-07-27T12:48:16.331Z,1011.60
2022-07-27T12:49:16.918Z,1011.56
2022-07-27T12:50:16.373Z,1011.55
2022-07-27T12:51:16.382Z,1011.58
2022-07-27T12:52:16.400Z,1011.54
2022-07-27T12:53:16.436Z,1011.58
2022-07-27T12:54:16.436Z,1011.61
2022-07-27T12:55:16.453Z,1011.62
2022-07-27T12:56:16.477Z,1011.60
2022-07-27T12:57:28.706Z,1011.65
2022-07-27T12:58:16.513Z,1011.68
2022-07-27T12:59:16.620Z,1011.62
2022-07-27T13:00:16.541Z,1011.66
2022-07-27T13:01:16.598Z,1011.65
2022-07-27T13:02:16.639Z,1011.66
2022-07-27T13:03:16.592Z,1011.64
2022-07-27T13:04:16.609Z,1011.65
2022-07-27T13:19:45.772Z,1011.58
2022-07-27T13:20:45.797Z,1011.50
2022-07-27T13:21:45.821Z,1011.50
2022-07-27T13:22:45.832Z,1011.48
2022-07-27T13:23:45.847Z,1011.48
2022-07-27T13:24:45.856Z,1011.50
2022-07-27T13:25:45.874Z,1011.53
2022-07-27T13:26:45.892Z,1011.51
2022-07-27T13:27:45.917Z,1011.47
2022-07-27T13:28:45.935Z,1011.51
2022-07-27T13:29:45.944Z,1011.49
2022-07-27T13:30:45.959Z,1011.49
2022-07-27T13:31:52.300Z,1011.53
2022-07-27T13:32:46.001Z,1011.52
2022-07-27T13:33:46.013Z,1011.54
2022-07-27T13:34:46.036Z,1011.52
2022-07-27T13:35:46.046Z,1011.55
2022-07-27T13:36:46.062Z,1011.52
2022-07-27T13:37:46.081Z,1011.49
2022-07-27T13:38:46.095Z,1011.46
2022-07-27T13:39:46.116Z,1011.48
2022-07-27T13:40:46.142Z,1011.43
2022-07-27T13:41:46.148Z,1011.47
2022-07-27T13:42:46.172Z,1011.47
2022-07-27T13:43:46.187Z,1011.46
2022-07-27T13:45:12.045Z,1011.47
2022-07-27T13:45:46.277Z,1011.41
2022-07-27T14:20:47.142Z,1011.50
2022-07-27T14:21:47.156Z,1011.46
2022-07-27T14:22:47.174Z,1011.47
2022-07-27T14:23:47.191Z,1011.42
2022-07-27T14:24:47.202Z,1011.40
2022-07-27T14:52:49.808Z,1011.34
2022-07-27T14:53:49.816Z,1011.36
2022-07-27T14:54:49.834Z,1011.33
2022-07-27T14:55:49.860Z,1011.32
2022-07-27T14:56:49.869Z,1011.29
2022-07-27T14:57:49.888Z,1011.29
2022-07-27T14:58:49.915Z,1011.27
2022-07-27T14:59:49.926Z,1011.25
2022-07-27T15:00:49.991Z,1011.24
2022-07-27T15:01:50.149Z,1011.20
2022-07-27T15:02:50.013Z,1011.26
2022-07-27T15:04:32.558Z,1011.35
2022-07-27T15:05:32.584Z,1011.31
2022-07-27T15:06:36.876Z,1011.25
2022-07-27T15:07:32.613Z,1011.25
2022-07-27T15:08:32.631Z,1011.26
2022-07-27T15:27:28.498Z,1011.22
2022-07-27T15:28:28.523Z,1011.15
2022-07-27T15:29:28.539Z,1011.21
2022-07-27T15:30:28.564Z,1011.24
2022-07-27T15:31:28.617Z,1011.24
2022-07-27T15:32:28.594Z,1011.21
2022-07-27T15:33:28.602Z,1011.25
2022-07-27T15:34:28.628Z,1011.25
2022-07-27T15:35:28.638Z,1011.28
2022-07-27T15:36:32.383Z,1011.25
2022-07-27T15:37:28.673Z,1011.22
2022-07-27T15:38:28.693Z,1011.23
2022-07-27T15:39:28.714Z,1011.24
2022-07-27T15:40:28.727Z,1011.27
2022-07-27T15:41:28.791Z,1011.22
2022-07-27T15:42:28.757Z,1011.25
2022-07-27T15:43:28.784Z,1011.24
2022-07-27T15:44:28.795Z,1011.31
2022-07-27T15:45:28.808Z,1011.26
2022-07-27T15:46:28.884Z,1011.30
2022-07-27T15:47:32.272Z,1011.28
2022-07-27T15:48:28.867Z,1011.31
2022-07-27T19:07:57.316Z,1011.82
2022-07-27T19:08:57.319Z,1011.85
2022-07-27T19:09:57.336Z,1011.83
2022-07-27T19:10:57.338Z,1011.84
2022-07-27T19:11:57.349Z,1011.85
2022-07-27T19:12:57.358Z,1011.85
2022-07-27T19:13:57.378Z,1011.86
2022-07-27T19:14:57.386Z,1011.86
2022-07-27T19:57:11.316Z,1012.12
2022-07-27T19:58:11.281Z,1012.09
2022-07-27T19:59:11.557Z,1012.17
2022-07-27T20:00:11.309Z,1012.17
2022-07-27T20:01:11.604Z,1012.15
2022-07-27T20:02:11.369Z,1012.16
2022-07-27T20:03:11.335Z,1012.14
2022-07-27T20:04:11.337Z,1012.17
2022-07-27T20:05:11.352Z,1012.16
2022-07-27T20:06:11.357Z,1012.15
2022-07-27T20:07:11.369Z,1012.17
2022-07-27T20:08:11.377Z,1012.15
2022-07-27T20:09:11.616Z,1012.14
2022-07-27T20:10:11.408Z,1012.18
2022-07-27T20:11:11.406Z,1012.21
2022-07-27T20:12:11.426Z,1012.18
2022-07-27T20:13:11.429Z,1012.21
2022-07-27T20:14:11.439Z,1012.18
2022-07-27T20:15:11.456Z,1012.19
2022-07-27T20:16:11.543Z,1012.24
2022-07-27T20:17:11.517Z,1012.25
2022-07-27T20:18:11.488Z,1012.23
2022-07-27T20:19:11.859Z,1012.23
2022-07-27T20:20:11.508Z,1012.26
2022-07-27T20:21:17.252Z,1012.29
2022-07-27T20:22:11.521Z,1012.27
2022-07-27T20:23:11.540Z,1012.31
2022-07-27T20:24:11.551Z,1012.32
2022-07-27T20:25:11.554Z,1012.31
2022-07-27T20:26:11.565Z,1012.33
2022-07-27T20:27:11.572Z,1012.31
2022-07-27T20:28:11.598Z,1012.34
2022-07-27T20:29:11.893Z,1012.33
2022-07-27T20:30:11.612Z,1012.35
2022-07-27T20:31:11.678Z,1012.36
2022-07-27T20:32:11.626Z,1012.30
2022-07-27T20:33:11.642Z,1012.33
2022-07-27T20:34:11.645Z,1012.33
2022-07-27T20:35:11.657Z,1012.35
2022-07-27T20:36:11.675Z,1012.33
2022-07-27T20:37:11.686Z,1012.32
2022-07-27T20:38:11.694Z,1012.33
2022-07-27T20:39:16.900Z,1012.32
2022-07-27T20:40:11.715Z,1012.32
2022-07-27T20:41:11.720Z,1012.31
2022-07-27T20:42:11.728Z,1012.27
2022-07-27T20:43:11.756Z,1012.32
2022-07-27T20:44:11.755Z,1012.31
2022-07-27T20:45:11.769Z,1012.37
2022-07-27T20:46:11.858Z,1012.34
2022-07-27T20:47:11.782Z,1012.37
2022-07-27T20:48:11.804Z,1012.41
2022-07-27T20:49:12.114Z,1012.41
2022-07-27T20:50:11.812Z,1012.40
2022-07-27T20:51:11.827Z,1012.40
2022-07-27T20:52:11.838Z,1012.37
2022-07-27T20:53:11.850Z,1012.41
2022-07-27T20:54:11.859Z,1012.43
2022-07-27T20:55:11.869Z,1012.40
2022-07-27T20:56:11.880Z,1012.43
2022-07-27T20:57:11.892Z,1012.45
2022-07-27T20:58:11.904Z,1012.52
2022-07-27T20:59:17.333Z,1012.51
2022-07-27T21:00:11.923Z,1012.51
2022-07-27T21:01:11.993Z,1012.52
2022-07-27T21:02:11.998Z,1012.51
2022-07-27T21:03:11.955Z,1012.57
2022-07-27T21:04:11.959Z,1012.55
2022-07-27T21:05:11.968Z,1012.56
2022-07-27T21:06:12.018Z,1012.55
2022-07-27T21:07:11.984Z,1012.56
2022-07-27T21:08:12.001Z,1012.53
2022-07-27T21:09:12.352Z,1012.54
2022-07-27T21:10:12.015Z,1012.57
2022-07-27T21:11:12.031Z,1012.58
2022-07-27T21:12:12.037Z,1012.55
2022-07-27T21:13:12.050Z,1012.60
2022-07-27T21:14:12.066Z,1012.62
2022-07-27T21:15:13.659Z,1012.62
2022-07-27T21:16:12.159Z,1012.63
2022-07-27T21:17:12.086Z,1012.64
2022-07-27T21:18:12.101Z,1012.66
2022-07-27T21:19:12.446Z,1012.67
2022-07-27T21:20:12.127Z,1012.69
2022-07-27T21:21:12.127Z,1012.69
2022-07-27T21:22:12.135Z,1012.72
2022-07-27T21:23:12.156Z,1012.77
2022-07-27T21:24:12.535Z,1012.75
2022-07-27T21:25:13.210Z,1012.77
2022-07-27T21:26:12.189Z,1012.77
2022-07-27T21:27:12.199Z,1012.78
2022-07-27T21:28:16.889Z,1012.80
2022-07-27T21:29:12.207Z,1012.82
2022-07-27T21:30:12.222Z,1012.82
2022-07-27T21:31:12.235Z,1012.84
2022-07-27T21:32:12.245Z,1012.87
2022-07-27T21:33:12.353Z,1012.88
2022-07-27T21:34:12.665Z,1012.87
2022-07-27T21:35:12.274Z,1012.83
2022-07-27T21:36:12.282Z,1012.89
2022-07-27T21:37:12.287Z,1012.89
2022-07-27T21:38:12.302Z,1012.85
2022-07-27T21:39:12.306Z,1012.90
2022-07-27T21:40:12.322Z,1012.90
2022-07-27T21:41:12.334Z,1012.95
2022-07-27T21:42:12.343Z,1012.91
2022-07-27T21:43:12.352Z,1012.91
2022-07-27T21:44:12.631Z,1012.91
2022-07-27T21:45:12.373Z,1012.90
2022-07-27T21:46:12.497Z,1012.91
2022-07-27T21:47:14.228Z,1012.95
2022-07-27T21:48:12.393Z,1012.93
2022-07-27T21:49:12.477Z,1012.95
2022-07-27T21:50:12.412Z,1012.99
2022-07-27T21:51:12.432Z,1012.97
2022-07-27T21:52:12.432Z,1013.00
2022-07-27T21:53:12.444Z,1013.02
2022-07-27T21:54:12.782Z,1012.99
2022-07-27T21:55:12.467Z,1013.07
2022-07-27T21:56:12.476Z,1013.07
2022-07-27T21:57:12.484Z,1013.08
2022-07-27T21:58:12.498Z,1013.07
2022-07-27T21:59:12.502Z,1013.09
2022-07-27T22:00:12.514Z,1013.08
2022-07-27T22:01:12.595Z,1013.06
2022-07-27T22:02:12.541Z,1013.05
2022-07-27T22:03:12.549Z,1013.09
2022-07-27T22:04:12.830Z,1013.10
2022-07-27T22:05:12.580Z,1013.11
2022-07-27T22:06:12.573Z,1013.14
2022-07-27T22:07:16.763Z,1013.12
2022-07-27T22:08:12.588Z,1013.15
2022-07-27T22:09:12.600Z,1013.13
2022-07-27T22:10:12.608Z,1013.11
2022-07-27T22:11:12.627Z,1013.12
2022-07-27T22:12:12.635Z,1013.11
2022-07-27T22:13:12.640Z,1013.13
2022-07-27T22:14:12.917Z,1013.13
2022-07-27T22:15:12.658Z,1013.13
2022-07-27T22:16:12.770Z,1013.14
2022-07-27T22:17:12.684Z,1013.11
2022-07-27T22:18:12.694Z,1013.17
2022-07-27T22:19:12.703Z,1013.17
2022-07-27T22:20:12.715Z,1013.17
2022-07-27T22:21:12.717Z,1013.19
2022-07-27T22:22:12.725Z,1013.22
2022-07-27T22:23:12.734Z,1013.23
2022-07-27T22:24:13.116Z,1013.25
2022-07-27T22:25:12.761Z,1013.28
2022-07-27T22:26:12.765Z,1013.30
2022-07-27T22:27:12.779Z,1013.30
2022-07-27T22:28:12.793Z,1013.29
2022-07-27T22:29:12.797Z,1013.31
2022-07-27T22:30:12.814Z,1013.32
2022-07-27T22:31:21.739Z,1013.29
2022-07-27T22:32:12.872Z,1013.29
2022-07-27T22:33:12.843Z,1013.31
2022-07-27T22:34:13.175Z,1013.34
2022-07-27T22:35:12.851Z,1013.35
2022-07-27T22:36:12.865Z,1013.37
2022-07-27T22:37:12.905Z,1013.39
2022-07-27T22:38:12.887Z,1013.36
2022-07-27T22:39:12.926Z,1013.39
2022-07-27T22:40:12.898Z,1013.42
2022-07-27T22:41:12.914Z,1013.41
2022-07-27T22:42:12.923Z,1013.48
2022-07-27T22:43:12.934Z,1013.45
2022-07-27T22:44:13.275Z,1013.46
2022-07-27T22:45:12.953Z,1013.44
2022-07-27T22:46:12.977Z,1013.48
2022-07-27T22:47:12.965Z,1013.46
2022-07-27T22:48:12.972Z,1013.47
2022-07-27T22:49:13.097Z,1013.45
2022-07-27T22:50:13.953Z,1013.44
2022-07-27T22:51:13.003Z,1013.49
2022-07-27T22:52:13.012Z,1013.53
2022-07-27T22:53:13.021Z,1013.50
2022-07-27T22:54:13.377Z,1013.54
2022-07-27T22:55:13.046Z,1013.58
2022-07-27T22:56:13.057Z,1013.55
2022-07-27T22:57:13.059Z,1013.56
2022-07-27T22:58:13.074Z,1013.54
2022-07-27T22:59:13.080Z,1013.52
2022-07-27T23:00:13.109Z,1013.54
2022-07-27T23:01:41.537Z,1013.52
2022-07-27T23:02:13.116Z,1013.54
2022-07-27T23:03:13.115Z,1013.49
2022-07-27T23:04:13.447Z,1013.51
2022-07-27T23:05:13.195Z,1013.47
2022-07-27T23:06:13.154Z,1013.48
2022-07-27T23:07:13.159Z,1013.46
2022-07-27T23:08:13.173Z,1013.50
2022-07-27T23:09:13.182Z,1013.49
2022-07-27T23:10:13.181Z,1013.53
2022-07-27T23:11:13.199Z,1013.56
2022-07-27T23:12:13.199Z,1013.54
2022-07-27T23:13:13.217Z,1013.56
2022-07-27T23:14:13.677Z,1013.55
2022-07-27T23:15:13.235Z,1013.60
2022-07-27T23:16:13.301Z,1013.61
2022-07-27T23:17:13.247Z,1013.60
2022-07-27T23:18:13.253Z,1013.61
2022-07-27T23:19:13.272Z,1013.62
2022-07-27T23:20:13.273Z,1013.57
2022-07-27T23:21:13.292Z,1013.57
2022-07-27T23:22:13.299Z,1013.52
2022-07-27T23:23:16.407Z,1013.53
2022-07-27T23:24:14.297Z,1013.49
2022-07-27T23:25:13.322Z,1013.48
2022-07-27T23:26:13.328Z,1013.48
2022-07-27T23:27:13.338Z,1013.52
2022-07-27T23:28:13.349Z,1013.49
2022-07-27T23:29:13.363Z,1013.49
2022-07-27T23:30:13.365Z,1013.52
2022-07-27T23:31:13.493Z,1013.50
2022-07-27T23:32:13.394Z,1013.53
2022-07-27T23:33:13.393Z,1013.52
2022-07-27T23:34:13.689Z,1013.46